sensor_id;sensor_type;location;lat;lon;timestamp;pressure;altitude;pressure_sealevel;temperature;humidity
26807;BME280;14380;49.910;6.792;2023-04-04T00:01:55;99860.81;;;0.39;91.03
26807;BME280;14380;49.910;6.792;2023-04-04T00:04:21;99863.31;;;0.16;92.05
26807;BME280;14380;49.910;6.792;2023-04-04T00:06:48;99858.13;;;0.28;92.26
26807;BME280;14380;49.910;6.792;2023-04-04T00:09:17;99864.13;;;0.10;91.89
26807;BME280;14380;49.910;6.792;2023-04-04T00:11:44;99848.59;;;0.24;92.26
26807;BME280;14380;49.910;6.792;2023-04-04T00:14:11;99852.00;;;0.12;93.34
26807;BME280;14380;49.910;6.792;2023-04-04T00:16:38;99841.66;;;0.17;92.96
26807;BME280;14380;49.910;6.792;2023-04-04T00:19:04;99846.03;;;0.29;91.54
26807;BME280;14380;49.910;6.792;2023-04-04T00:21:31;99849.47;;;0.25;91.42
26807;BME280;14380;49.910;6.792;2023-04-04T00:23:58;99845.13;;;0.16;90.74
26807;BME280;14380;49.910;6.792;2023-04-04T00:26:26;99841.56;;;0.02;91.13
26807;BME280;14380;49.910;6.792;2023-04-04T00:28:53;99836.38;;;0.03;93.73
26807;BME280;14380;49.910;6.792;2023-04-04T00:31:20;99838.88;;;-0.16;93.96
26807;BME280;14380;49.910;6.792;2023-04-04T00:33:47;99840.72;;;0.03;91.72
26807;BME280;14380;49.910;6.792;2023-04-04T00:36:13;99841.53;;;-0.08;92.53
26807;BME280;14380;49.910;6.792;2023-04-04T00:38:41;99840.63;;;-0.13;92.16
26807;BME280;14380;49.910;6.792;2023-04-04T00:41:08;99832.03;;;0.02;91.42
26807;BME280;14380;49.910;6.792;2023-04-04T00:43:36;99824.28;;;0.08;91.30
26807;BME280;14380;49.910;6.792;2023-04-04T00:46:03;99828.59;;;0.00;91.86
26807;BME280;14380;49.910;6.792;2023-04-04T00:48:30;99820.78;;;-0.06;93.01
26807;BME280;14380;49.910;6.792;2023-04-04T00:50:57;99827.66;;;-0.13;94.67
26807;BME280;14380;49.910;6.792;2023-04-04T00:53:24;99823.34;;;-0.08;92.38
26807;BME280;14380;49.910;6.792;2023-04-04T00:55:52;99830.22;;;-0.18;92.50
26807;BME280;14380;49.910;6.792;2023-04-04T00:58:19;99829.31;;;-0.27;92.52
26807;BME280;14380;49.910;6.792;2023-04-04T01:00:47;99829.41;;;-0.10;92.52
26807;BME280;14380;49.910;6.792;2023-04-04T01:03:14;99829.44;;;-0.04;90.57
26807;BME280;14380;49.910;6.792;2023-04-04T01:05:41;99829.31;;;-0.27;93.02
26807;BME280;14380;49.910;6.792;2023-04-04T01:08:08;99824.13;;;-0.23;92.37
26807;BME280;14380;49.910;6.792;2023-04-04T01:10:35;99825.03;;;-0.18;91.90
26807;BME280;14380;49.910;6.792;2023-04-04T01:13:02;99828.44;;;-0.29;93.46
26807;BME280;14380;49.910;6.792;2023-04-04T01:15:29;99832.63;;;-0.47;92.46
26807;BME280;14380;49.910;6.792;2023-04-04T01:17:59;99821.50;;;-0.31;93.49
26807;BME280;14380;49.910;6.792;2023-04-04T01:20:29;99820.53;;;-0.43;93.81
26807;BME280;14380;49.910;6.792;2023-04-04T01:22:58;99821.34;;;-0.54;91.67
26807;BME280;14380;49.910;6.792;2023-04-04T01:25:29;99815.47;;;-0.29;94.28
26807;BME280;14380;49.910;6.792;2023-04-04T01:27:56;99820.59;;;-0.34;94.11
26807;BME280;14380;49.910;6.792;2023-04-04T01:30:24;99815.47;;;-0.26;92.54
26807;BME280;14380;49.910;6.792;2023-04-04T01:32:58;99822.28;;;-0.41;95.85
26807;BME280;14380;49.910;6.792;2023-04-04T01:35:30;99818.88;;;-0.35;93.71
26807;BME280;14380;49.910;6.792;2023-04-04T01:38:07;99824.78;;;-0.58;93.85
26807;BME280;14380;49.910;6.792;2023-04-04T01:40:43;99824.00;;;-0.41;92.44
26807;BME280;14380;49.910;6.792;2023-04-04T01:43:13;99819.66;;;-0.47;93.19
26807;BME280;14380;49.910;6.792;2023-04-04T01:45:40;99825.56;;;-0.68;92.93
26807;BME280;14380;49.910;6.792;2023-04-04T01:48:07;99817.09;;;-0.44;93.25
26807;BME280;14380;49.910;6.792;2023-04-04T01:50:35;99816.06;;;-0.68;93.15
26807;BME280;14380;49.910;6.792;2023-04-04T01:53:01;99817.91;;;-0.51;94.16
26807;BME280;14380;49.910;6.792;2023-04-04T01:55:28;99806.56;;;-0.63;92.69
26807;BME280;14380;49.910;6.792;2023-04-04T01:57:57;99806.66;;;-0.55;93.71
26807;BME280;14380;49.910;6.792;2023-04-04T02:00:24;99810.88;;;-0.66;94.10
26807;BME280;14380;49.910;6.792;2023-04-04T02:02:51;99811.81;;;-0.58;93.15
26807;BME280;14380;49.910;6.792;2023-04-04T02:05:17;99817.78;;;-0.64;93.03
26807;BME280;14380;49.910;6.792;2023-04-04T02:07:46;99814.38;;;-0.61;92.21
26807;BME280;14380;49.910;6.792;2023-04-04T02:10:13;99817.94;;;-0.50;89.27
26807;BME280;14380;49.910;6.792;2023-04-04T02:12:39;99810.31;;;-0.23;87.33
26807;BME280;14380;49.910;6.792;2023-04-04T02:15:08;99809.53;;;-0.04;86.30
26807;BME280;14380;49.910;6.792;2023-04-04T02:17:35;99812.94;;;-0.16;86.35
26807;BME280;14380;49.910;6.792;2023-04-04T02:20:02;99815.59;;;-0.06;87.86
26807;BME280;14380;49.910;6.792;2023-04-04T02:22:29;99816.31;;;-0.26;87.81
26807;BME280;14380;49.910;6.792;2023-04-04T02:24:55;99822.34;;;-0.33;90.50
26807;BME280;14380;49.910;6.792;2023-04-04T02:27:24;99823.22;;;-0.31;88.33
26807;BME280;14380;49.910;6.792;2023-04-04T02:29:51;99817.22;;;-0.25;85.89
26807;BME280;14380;49.910;6.792;2023-04-04T02:32:21;99819.91;;;-0.04;85.33
26807;BME280;14380;49.910;6.792;2023-04-04T02:34:48;99818.19;;;0.03;83.76
26807;BME280;14380;49.910;6.792;2023-04-04T02:37:15;99819.03;;;-0.06;85.41
26807;BME280;14380;49.910;6.792;2023-04-04T02:39:42;99818.84;;;-0.38;89.38
26807;BME280;14380;49.910;6.792;2023-04-04T02:42:08;99809.31;;;-0.44;87.48
26807;BME280;14380;49.910;6.792;2023-04-04T02:44:34;99813.84;;;-0.10;85.37
26807;BME280;14380;49.910;6.792;2023-04-04T02:47:01;99805.22;;;-0.02;85.47
26807;BME280;14380;49.910;6.792;2023-04-04T02:49:29;99815.56;;;-0.12;84.85
26807;BME280;14380;49.910;6.792;2023-04-04T02:51:56;99813.00;;;-0.02;84.23
26807;BME280;14380;49.910;6.792;2023-04-04T02:54:23;99812.19;;;0.10;83.93
26807;BME280;14380;49.910;6.792;2023-04-04T02:56:49;99806.09;;;0.01;84.87
26807;BME280;14380;49.910;6.792;2023-04-04T02:59:16;99814.56;;;-0.30;84.25
26807;BME280;14380;49.910;6.792;2023-04-04T03:01:43;99798.31;;;0.01;82.54
26807;BME280;14380;49.910;6.792;2023-04-04T03:04:10;99806.84;;;-0.16;87.27
26807;BME280;14380;49.910;6.792;2023-04-04T03:06:39;99801.63;;;-0.27;87.46
26807;BME280;14380;49.910;6.792;2023-04-04T03:09:06;99799.06;;;-0.25;88.07
26807;BME280;14380;49.910;6.792;2023-04-04T03:11:33;99798.09;;;-0.37;87.84
26807;BME280;14380;49.910;6.792;2023-04-04T03:14:00;99791.13;;;-0.47;88.13
26807;BME280;14380;49.910;6.792;2023-04-04T03:16:26;99797.06;;;-0.65;89.42
26807;BME280;14380;49.910;6.792;2023-04-04T03:18:54;99791.88;;;-0.62;90.82
26807;BME280;14380;49.910;6.792;2023-04-04T03:21:20;99799.63;;;-0.70;90.13
26807;BME280;14380;49.910;6.792;2023-04-04T03:23:48;99797.81;;;-0.80;89.75
26807;BME280;14380;49.910;6.792;2023-04-04T03:26:15;99800.47;;;-0.69;90.17
26807;BME280;14380;49.910;6.792;2023-04-04T03:28:41;99800.38;;;-0.83;90.62
26807;BME280;14380;49.910;6.792;2023-04-04T03:31:08;99800.28;;;-0.97;92.32
26807;BME280;14380;49.910;6.792;2023-04-04T03:33:35;99795.22;;;-0.80;90.70
26807;BME280;14380;49.910;6.792;2023-04-04T03:36:02;99796.03;;;-0.86;90.55
26807;BME280;14380;49.910;6.792;2023-04-04T03:38:28;99788.34;;;-0.73;90.75
26807;BME280;14380;49.910;6.792;2023-04-04T03:41:03;99790.88;;;-0.84;89.99
26807;BME280;14380;49.910;6.792;2023-04-04T03:43:30;99791.63;;;-0.95;90.64
26807;BME280;14380;49.910;6.792;2023-04-04T03:45:59;99789.03;;;-0.96;91.16
26807;BME280;14380;49.910;6.792;2023-04-04T03:48:26;99783.84;;;-0.98;91.09
26807;BME280;14380;49.910;6.792;2023-04-04T03:50:53;99785.53;;;-1.00;90.23
26807;BME280;14380;49.910;6.792;2023-04-04T03:53:19;99791.50;;;-1.10;90.81
26807;BME280;14380;49.910;6.792;2023-04-04T03:55:46;99788.13;;;-1.00;90.66
26807;BME280;14380;49.910;6.792;2023-04-04T03:58:14;99784.59;;;-1.08;90.29
26807;BME280;14380;49.910;6.792;2023-04-04T04:00:40;99783.63;;;-1.21;91.31
26807;BME280;14380;49.910;6.792;2023-04-04T04:03:07;99782.00;;;-1.14;92.98
26807;BME280;14380;49.910;6.792;2023-04-04T04:05:33;99777.50;;;-1.29;93.96
26807;BME280;14380;49.910;6.792;2023-04-04T04:08:00;99778.44;;;-1.21;93.09
26807;BME280;14380;49.910;6.792;2023-04-04T04:10:27;99785.41;;;-1.18;93.69
26807;BME280;14380;49.910;6.792;2023-04-04T04:12:53;99787.91;;;-1.28;93.56
26807;BME280;14380;49.910;6.792;2023-04-04T04:15:22;99787.78;;;-1.40;93.92
26807;BME280;14380;49.910;6.792;2023-04-04T04:17:49;99788.81;;;-1.23;91.96
26807;BME280;14380;49.910;6.792;2023-04-04T04:20:15;99782.66;;;-1.34;92.04
26807;BME280;14380;49.910;6.792;2023-04-04T04:22:44;99779.31;;;-1.24;91.21
26807;BME280;14380;49.910;6.792;2023-04-04T04:25:11;99777.53;;;-1.26;91.52
26807;BME280;14380;49.910;6.792;2023-04-04T04:27:37;99781.78;;;-1.36;91.67
26807;BME280;14380;49.910;6.792;2023-04-04T04:30:06;99783.56;;;-1.29;92.38
26807;BME280;14380;49.910;6.792;2023-04-04T04:32:34;99779.31;;;-1.24;92.33
26807;BME280;14380;49.910;6.792;2023-04-04T04:35:00;99785.97;;;-1.47;92.16
26807;BME280;14380;49.910;6.792;2023-04-04T04:37:27;99790.47;;;-1.32;91.73
26807;BME280;14380;49.910;6.792;2023-04-04T04:39:54;99786.13;;;-1.30;92.13
26807;BME280;14380;49.910;6.792;2023-04-04T04:42:21;99783.38;;;-1.49;92.60
26807;BME280;14380;49.910;6.792;2023-04-04T04:44:47;99784.16;;;-1.56;93.57
26807;BME280;14380;49.910;6.792;2023-04-04T04:47:14;99783.91;;;-1.80;94.93
26807;BME280;14380;49.910;6.792;2023-04-04T04:49:42;99779.94;;;-1.48;93.37
26807;BME280;14380;49.910;6.792;2023-04-04T04:52:12;99781.56;;;-1.58;93.17
26807;BME280;14380;49.910;6.792;2023-04-04T04:54:38;99787.66;;;-1.51;93.38
26807;BME280;14380;49.910;6.792;2023-04-04T04:57:05;99788.50;;;-1.54;94.00
26807;BME280;14380;49.910;6.792;2023-04-04T04:59:32;99794.34;;;-1.73;93.54
26807;BME280;14380;49.910;6.792;2023-04-04T05:01:58;99790.19;;;-1.57;93.73
26807;BME280;14380;49.910;6.792;2023-04-04T05:04:25;99794.50;;;-1.58;94.54
26807;BME280;14380;49.910;6.792;2023-04-04T05:06:53;99785.81;;;-1.61;93.73
26807;BME280;14380;49.910;6.792;2023-04-04T05:09:20;99796.97;;;-1.70;94.54
26807;BME280;14380;49.910;6.792;2023-04-04T05:11:46;99797.91;;;-1.62;92.97
26807;BME280;14380;49.910;6.792;2023-04-04T05:14:13;99797.16;;;-1.53;94.27
26807;BME280;14380;49.910;6.792;2023-04-04T05:16:39;99796.00;;;-1.78;95.00
26807;BME280;14380;49.910;6.792;2023-04-04T05:19:06;99800.41;;;-1.70;94.22
26807;BME280;14380;49.910;6.792;2023-04-04T05:21:33;99798.81;;;-1.58;93.48
26807;BME280;14380;49.910;6.792;2023-04-04T05:24:02;99803.19;;;-1.53;93.06
26807;BME280;14380;49.910;6.792;2023-04-04T05:26:28;99794.44;;;-1.64;93.54
26807;BME280;14380;49.910;6.792;2023-04-04T05:28:55;99783.41;;;-1.44;93.19
26807;BME280;14380;49.910;6.792;2023-04-04T05:31:23;99779.78;;;-1.62;93.32
26807;BME280;14380;49.910;6.792;2023-04-04T05:33:49;99778.91;;;-1.62;94.23
26807;BME280;14380;49.910;6.792;2023-04-04T05:36:16;99779.88;;;-1.53;96.06
26807;BME280;14380;49.910;6.792;2023-04-04T05:38:43;99781.59;;;-1.52;94.58
26807;BME280;14380;49.910;6.792;2023-04-04T05:41:11;99779.22;;;-1.35;93.43
26807;BME280;14380;49.910;6.792;2023-04-04T05:43:38;99782.69;;;-1.31;94.63
26807;BME280;14380;49.910;6.792;2023-04-04T05:46:04;99794.84;;;-1.22;92.28
26807;BME280;14380;49.910;6.792;2023-04-04T05:48:31;99794.75;;;-1.31;92.50
26807;BME280;14380;49.910;6.792;2023-04-04T05:50:57;99795.88;;;-1.05;91.31
26807;BME280;14380;49.910;6.792;2023-04-04T05:53:24;99800.94;;;-1.18;91.20
26807;BME280;14380;49.910;6.792;2023-04-04T05:55:51;99800.13;;;-1.13;92.26
26807;BME280;14380;49.910;6.792;2023-04-04T05:58:19;99808.03;;;-0.96;93.45
26807;BME280;14380;49.910;6.792;2023-04-04T06:00:46;99820.16;;;-0.95;93.50
26807;BME280;14380;49.910;6.792;2023-04-04T06:03:13;99817.66;;;-0.81;91.10
26807;BME280;14380;49.910;6.792;2023-04-04T06:05:41;99820.28;;;-0.78;90.62
26807;BME280;14380;49.910;6.792;2023-04-04T06:08:07;99819.50;;;-0.70;89.39
26807;BME280;14380;49.910;6.792;2023-04-04T06:10:34;99827.16;;;-0.83;94.27
26807;BME280;14380;49.910;6.792;2023-04-04T06:13:01;99824.63;;;-0.77;92.42
26807;BME280;14380;49.910;6.792;2023-04-04T06:15:29;99828.16;;;-0.70;91.70
26807;BME280;14380;49.910;6.792;2023-04-04T06:17:55;99822.09;;;-0.66;89.72
26807;BME280;14380;49.910;6.792;2023-04-04T06:20:22;99817.00;;;-0.58;88.82
26807;BME280;14380;49.910;6.792;2023-04-04T06:22:48;99814.50;;;-0.44;87.78
26807;BME280;14380;49.910;6.792;2023-04-04T06:25:15;99815.34;;;-0.45;88.61
26807;BME280;14380;49.910;6.792;2023-04-04T06:27:42;99806.84;;;-0.19;85.94
26807;BME280;14380;49.910;6.792;2023-04-04T06:30:10;99809.47;;;-0.18;84.44
26807;BME280;14380;49.910;6.792;2023-04-04T06:32:40;99806.19;;;0.21;82.78
26807;BME280;14380;49.910;6.792;2023-04-04T06:35:07;99819.28;;;0.58;82.27
26807;BME280;14380;49.910;6.792;2023-04-04T06:37:34;99817.56;;;0.68;81.47
26807;BME280;14380;49.910;6.792;2023-04-04T06:40:00;99808.97;;;1.20;80.02
26807;BME280;14380;49.910;6.792;2023-04-04T06:42:27;99823.69;;;1.40;78.79
26807;BME280;14380;49.910;6.792;2023-04-04T06:44:53;99815.00;;;1.38;79.08
26807;BME280;14380;49.910;6.792;2023-04-04T06:47:20;99802.88;;;1.38;77.61
26807;BME280;14380;49.910;6.792;2023-04-04T06:49:48;99804.59;;;1.69;77.80
26807;BME280;14380;49.910;6.792;2023-04-04T06:52:16;99806.28;;;1.81;76.44
26807;BME280;14380;49.910;6.792;2023-04-04T06:54:43;99815.88;;;1.68;76.47
26807;BME280;14380;49.910;6.792;2023-04-04T06:57:10;99805.41;;;1.83;76.44
26807;BME280;14380;49.910;6.792;2023-04-04T06:59:36;99810.63;;;1.85;76.10
26807;BME280;14380;49.910;6.792;2023-04-04T07:02:03;99807.06;;;2.01;74.00
26807;BME280;14380;49.910;6.792;2023-04-04T07:04:29;99813.22;;;1.91;73.86
26807;BME280;14380;49.910;6.792;2023-04-04T07:07:00;99809.59;;;2.25;74.22
26807;BME280;14380;49.910;6.792;2023-04-04T07:09:27;99806.13;;;2.24;72.68
26807;BME280;14380;49.910;6.792;2023-04-04T07:11:54;99811.38;;;2.18;73.61
26807;BME280;14380;49.910;6.792;2023-04-04T07:14:21;99812.25;;;2.15;72.14
26807;BME280;14380;49.910;6.792;2023-04-04T07:16:49;99805.97;;;2.60;72.15
26807;BME280;14380;49.910;6.792;2023-04-04T07:19:15;99804.09;;;2.82;71.34
26807;BME280;14380;49.910;6.792;2023-04-04T07:21:42;99813.69;;;2.72;70.36
26807;BME280;14380;49.910;6.792;2023-04-04T07:24:10;99812.78;;;2.82;70.15
26807;BME280;14380;49.910;6.792;2023-04-04T07:26:37;99813.56;;;2.92;70.12
26807;BME280;14380;49.910;6.792;2023-04-04T07:29:05;99814.44;;;2.96;69.93
26807;BME280;14380;49.910;6.792;2023-04-04T07:31:32;99813.28;;;3.31;71.45
26807;BME280;14380;49.910;6.792;2023-04-04T07:34:00;99820.25;;;3.32;69.50
26807;BME280;14380;49.910;6.792;2023-04-04T07:36:27;99816.69;;;3.39;69.10
26807;BME280;14380;49.910;6.792;2023-04-04T07:38:54;99824.56;;;3.33;68.55
26807;BME280;14380;49.910;6.792;2023-04-04T07:41:22;99817.38;;;3.62;69.99
26807;BME280;14380;49.910;6.792;2023-04-04T07:43:50;99814.31;;;3.10;68.58
26807;BME280;14380;49.910;6.792;2023-04-04T07:46:16;99825.53;;;3.20;70.46
26807;BME280;14380;49.910;6.792;2023-04-04T07:48:44;99807.16;;;3.35;70.17
26807;BME280;14380;49.910;6.792;2023-04-04T07:51:11;99804.19;;;3.74;67.83
26807;BME280;14380;49.910;6.792;2023-04-04T07:53:38;99807.69;;;3.73;68.41
26807;BME280;14380;49.910;6.792;2023-04-04T07:56:04;99808.75;;;3.52;69.88
26807;BME280;14380;49.910;6.792;2023-04-04T07:58:33;99812.34;;;3.37;68.09
26807;BME280;14380;49.910;6.792;2023-04-04T08:01:00;99809.69;;;3.45;68.03
26807;BME280;14380;49.910;6.792;2023-04-04T08:03:27;99805.19;;;3.61;68.77
26807;BME280;14380;49.910;6.792;2023-04-04T08:05:53;99807.66;;;3.75;68.27
26807;BME280;14380;49.910;6.792;2023-04-04T08:08:20;99818.19;;;3.67;68.27
26807;BME280;14380;49.910;6.792;2023-04-04T08:10:47;99806.69;;;3.83;66.97
26807;BME280;14380;49.910;6.792;2023-04-04T08:13:14;99803.09;;;3.95;67.11
26807;BME280;14380;49.910;6.792;2023-04-04T08:15:42;99813.44;;;4.03;66.38
26807;BME280;14380;49.910;6.792;2023-04-04T08:18:09;99810.84;;;4.03;66.55
26807;BME280;14380;49.910;6.792;2023-04-04T08:20:36;99802.59;;;4.36;65.84
26807;BME280;14380;49.910;6.792;2023-04-04T08:23:03;99806.88;;;4.41;65.42
26807;BME280;14380;49.910;6.792;2023-04-04T08:25:29;99808.88;;;4.21;64.13
26807;BME280;14380;49.910;6.792;2023-04-04T08:27:56;99803.28;;;5.10;65.92
26807;BME280;14380;49.910;6.792;2023-04-04T08:30:23;99798.69;;;4.66;64.88
26807;BME280;14380;49.910;6.792;2023-04-04T08:32:51;99812.44;;;4.81;64.47
26807;BME280;14380;49.910;6.792;2023-04-04T08:35:18;99812.09;;;5.04;64.22
26807;BME280;14380;49.910;6.792;2023-04-04T08:37:45;99809.28;;;5.16;63.67
26807;BME280;14380;49.910;6.792;2023-04-04T08:40:13;99804.97;;;5.14;63.43
26807;BME280;14380;49.910;6.792;2023-04-04T08:42:40;99814.53;;;5.16;62.95
26807;BME280;14380;49.910;6.792;2023-04-04T08:45:11;99814.72;;;5.57;64.13
26807;BME280;14380;49.910;6.792;2023-04-04T08:47:38;99816.53;;;4.99;62.54
26807;BME280;14380;49.910;6.792;2023-04-04T08:50:08;99808.38;;;5.19;62.02
26807;BME280;14380;49.910;6.792;2023-04-04T08:52:36;99798.38;;;4.88;61.33
26807;BME280;14380;49.910;6.792;2023-04-04T08:55:04;99801.44;;;5.66;62.14
26807;BME280;14380;49.910;6.792;2023-04-04T08:57:32;99800.25;;;5.85;62.00
26807;BME280;14380;49.910;6.792;2023-04-04T08:59:59;99800.97;;;5.93;62.26
26807;BME280;14380;49.910;6.792;2023-04-04T09:02:28;99796.91;;;5.28;60.39
26807;BME280;14380;49.910;6.792;2023-04-04T09:05:00;99804.34;;;5.98;61.07
26807;BME280;14380;49.910;6.792;2023-04-04T09:07:30;99798.44;;;5.40;61.32
26807;BME280;14380;49.910;6.792;2023-04-04T09:09:57;99794.81;;;5.47;61.69
26807;BME280;14380;49.910;6.792;2023-04-04T09:12:26;99798.19;;;5.52;60.82
26807;BME280;14380;49.910;6.792;2023-04-04T09:14:55;99803.22;;;5.64;60.79
26807;BME280;14380;49.910;6.792;2023-04-04T09:17:23;99799.44;;;5.81;60.41
26807;BME280;14380;49.910;6.792;2023-04-04T09:19:49;99794.34;;;6.19;62.27
26807;BME280;14380;49.910;6.792;2023-04-04T09:22:18;99796.56;;;5.95;60.85
26807;BME280;14380;49.910;6.792;2023-04-04T09:24:46;99785.44;;;6.28;59.56
26807;BME280;14380;49.910;6.792;2023-04-04T09:27:15;99787.38;;;6.19;59.91
26807;BME280;14380;49.910;6.792;2023-04-04T09:29:42;99782.13;;;6.60;59.38
26807;BME280;14380;49.910;6.792;2023-04-04T09:32:11;99780.94;;;6.74;58.93
26807;BME280;14380;49.910;6.792;2023-04-04T09:34:40;99780.63;;;6.88;60.20
26807;BME280;14380;49.910;6.792;2023-04-04T09:37:08;99779.78;;;6.48;60.16
26807;BME280;14380;49.910;6.792;2023-04-04T09:39:38;99780.09;;;6.32;59.12
26807;BME280;14380;49.910;6.792;2023-04-04T09:42:07;99780.44;;;6.17;60.30
26807;BME280;14380;49.910;6.792;2023-04-04T09:44:35;99782.66;;;6.35;58.86
26807;BME280;14380;49.910;6.792;2023-04-04T09:47:22;99777.41;;;6.76;59.88
26807;BME280;14380;49.910;6.792;2023-04-04T09:49:48;99769.91;;;6.59;60.12
26807;BME280;14380;49.910;6.792;2023-04-04T09:52:16;99762.91;;;6.96;58.30
26807;BME280;14380;49.910;6.792;2023-04-04T09:54:43;99763.06;;;6.52;57.76
26807;BME280;14380;49.910;6.792;2023-04-04T09:57:12;99771.78;;;5.66;58.48
26807;BME280;14380;49.910;6.792;2023-04-04T09:59:39;99767.13;;;6.26;59.38
26807;BME280;14380;49.910;6.792;2023-04-04T10:02:08;99766.22;;;6.66;59.67
26807;BME280;14380;49.910;6.792;2023-04-04T10:04:36;99763.50;;;7.43;60.59
26807;BME280;14380;49.910;6.792;2023-04-04T10:07:03;99762.22;;;6.88;59.14
26807;BME280;14380;49.910;6.792;2023-04-04T10:09:31;99774.72;;;6.40;57.74
26807;BME280;14380;49.910;6.792;2023-04-04T10:12:07;99765.38;;;6.66;56.60
26807;BME280;14380;49.910;6.792;2023-04-04T10:14:36;99756.28;;;7.17;58.37
26807;BME280;14380;49.910;6.792;2023-04-04T10:17:06;99747.63;;;6.77;57.31
26807;BME280;14380;49.910;6.792;2023-04-04T10:19:35;99766.16;;;6.69;55.85
26807;BME280;14380;49.910;6.792;2023-04-04T10:22:03;99773.66;;;6.47;56.87
26807;BME280;14380;49.910;6.792;2023-04-04T10:24:30;99764.69;;;7.32;57.76
26807;BME280;14380;49.910;6.792;2023-04-04T10:26:57;99767.25;;;6.61;56.31
26807;BME280;14380;49.910;6.792;2023-04-04T10:29:24;99772.38;;;7.03;56.94
26807;BME280;14380;49.910;6.792;2023-04-04T10:31:58;99758.16;;;7.12;55.64
26807;BME280;14380;49.910;6.792;2023-04-04T10:34:30;99757.81;;;7.26;55.20
26807;BME280;14380;49.910;6.792;2023-04-04T10:37:05;99760.69;;;7.17;57.00
26807;BME280;14380;49.910;6.792;2023-04-04T10:39:37;99759.38;;;6.98;56.78
26807;BME280;14380;49.910;6.792;2023-04-04T10:42:08;99757.09;;;6.83;58.36
26807;BME280;14380;49.910;6.792;2023-04-04T10:44:37;99755.84;;;7.34;58.14
26807;BME280;14380;49.910;6.792;2023-04-04T10:47:13;99751.44;;;7.69;57.55
26807;BME280;14380;49.910;6.792;2023-04-04T10:49:43;99754.94;;;7.35;57.37
26807;BME280;14380;49.910;6.792;2023-04-04T10:52:10;99753.88;;;7.76;57.33
26807;BME280;14380;49.910;6.792;2023-04-04T10:54:39;99754.63;;;7.48;56.11
26807;BME280;14380;49.910;6.792;2023-04-04T10:57:08;99741.94;;;7.31;56.42
26807;BME280;14380;49.910;6.792;2023-04-04T10:59:54;99745.25;;;8.02;59.51
26807;BME280;14380;49.910;6.792;2023-04-04T11:02:44;99751.03;;;8.15;55.72
26807;BME280;14380;49.910;6.792;2023-04-04T11:05:11;99734.75;;;8.32;57.18
26807;BME280;14380;49.910;6.792;2023-04-04T11:07:39;99733.06;;;8.59;56.11
26807;BME280;14380;49.910;6.792;2023-04-04T11:10:12;99724.16;;;8.33;54.57
26807;BME280;14380;49.910;6.792;2023-04-04T11:12:44;99718.84;;;8.65;54.14
26807;BME280;14380;49.910;6.792;2023-04-04T11:15:13;99723.91;;;8.13;54.12
26807;BME280;14380;49.910;6.792;2023-04-04T11:20:32;99728.38;;;8.69;55.42
26807;BME280;14380;49.910;6.792;2023-04-04T11:23:04;99730.13;;;7.79;54.16
26807;BME280;14380;49.910;6.792;2023-04-04T11:25:32;99721.09;;;8.49;55.63
26807;BME280;14380;49.910;6.792;2023-04-04T11:28:03;99717.63;;;8.47;54.67
26807;BME280;14380;49.910;6.792;2023-04-04T11:30:36;99721.44;;;8.37;54.84
26807;BME280;14380;49.910;6.792;2023-04-04T11:33:08;99716.16;;;8.38;54.48
26807;BME280;14380;49.910;6.792;2023-04-04T11:35:38;99716.94;;;8.12;54.37
26807;BME280;14380;49.910;6.792;2023-04-04T11:38:11;99724.94;;;8.66;57.00
26807;BME280;14380;49.910;6.792;2023-04-04T11:40:39;99708.03;;;9.27;56.30
26807;BME280;14380;49.910;6.792;2023-04-04T11:43:08;99717.25;;;8.29;54.21
26807;BME280;14380;49.910;6.792;2023-04-04T11:45:36;99707.28;;;8.41;54.72
26807;BME280;14380;49.910;6.792;2023-04-04T11:48:04;99695.09;;;8.67;56.63
26807;BME280;14380;49.910;6.792;2023-04-04T11:50:35;99701.56;;;9.10;56.16
26807;BME280;14380;49.910;6.792;2023-04-04T11:53:08;99690.34;;;9.30;55.23
26807;BME280;14380;49.910;6.792;2023-04-04T11:55:39;99694.56;;;9.09;54.12
26807;BME280;14380;49.910;6.792;2023-04-04T11:58:11;99694.69;;;8.79;54.43
26807;BME280;14380;49.910;6.792;2023-04-04T12:00:38;99696.22;;;8.86;55.14
26807;BME280;14380;49.910;6.792;2023-04-04T12:03:07;99686.69;;;9.34;55.01
26807;BME280;14380;49.910;6.792;2023-04-04T12:05:35;99681.22;;;8.88;53.65
26807;BME280;14380;49.910;6.792;2023-04-04T12:08:03;99686.25;;;8.39;54.00
26807;BME280;14380;49.910;6.792;2023-04-04T12:10:33;99676.59;;;8.95;56.91
26807;BME280;14380;49.910;6.792;2023-04-04T12:13:00;99678.16;;;8.75;55.38
26807;BME280;14380;49.910;6.792;2023-04-04T12:15:28;99683.19;;;9.08;56.01
26807;BME280;14380;49.910;6.792;2023-04-04T12:17:57;99671.75;;;9.10;55.83
26807;BME280;14380;49.910;6.792;2023-04-04T12:20:24;99687.44;;;8.86;53.51
26807;BME280;14380;49.910;6.792;2023-04-04T12:22:51;99669.81;;;8.88;53.81
26807;BME280;14380;49.910;6.792;2023-04-04T12:25:20;99662.75;;;9.41;54.08
26807;BME280;14380;49.910;6.792;2023-04-04T12:27:49;99664.44;;;9.18;52.18
26807;BME280;14380;49.910;6.792;2023-04-04T12:30:17;99672.00;;;8.75;53.00
26807;BME280;14380;49.910;6.792;2023-04-04T12:32:45;99662.28;;;8.77;52.64
26807;BME280;14380;49.910;6.792;2023-04-04T12:35:13;99659.16;;;9.18;52.59
26807;BME280;14380;49.910;6.792;2023-04-04T12:37:56;99658.06;;;9.49;53.11
26807;BME280;14380;49.910;6.792;2023-04-04T12:40:23;99650.22;;;9.47;53.86
26807;BME280;14380;49.910;6.792;2023-04-04T12:42:51;99646.38;;;9.56;52.61
26807;BME280;14380;49.910;6.792;2023-04-04T12:45:20;99650.56;;;9.62;54.19
26807;BME280;14380;49.910;6.792;2023-04-04T12:47:51;99650.66;;;9.10;51.64
26807;BME280;14380;49.910;6.792;2023-04-04T12:50:22;99647.81;;;9.89;52.86
26807;BME280;14380;49.910;6.792;2023-04-04T12:52:51;99635.19;;;9.73;53.67
26807;BME280;14380;49.910;6.792;2023-04-04T12:55:20;99630.22;;;9.65;52.76
26807;BME280;14380;49.910;6.792;2023-04-04T12:57:48;99631.00;;;8.95;52.13
26807;BME280;14380;49.910;6.792;2023-04-04T13:00:19;99624.66;;;9.73;53.05
26807;BME280;14380;49.910;6.792;2023-04-04T13:02:48;99624.09;;;9.89;54.30
26807;BME280;14380;49.910;6.792;2023-04-04T13:05:15;99627.38;;;9.94;51.74
26807;BME280;14380;49.910;6.792;2023-04-04T13:07:43;99628.94;;;10.00;53.07
26807;BME280;14380;49.910;6.792;2023-04-04T13:10:11;99621.88;;;9.52;52.31
26807;BME280;14380;49.910;6.792;2023-04-04T13:12:56;99623.00;;;9.71;53.12
26807;BME280;14380;49.910;6.792;2023-04-04T13:15:47;99621.38;;;9.43;52.96